sensor_id;sensor_type;location;lat;lon;timestamp;temperature;humidity
1337;DHT22;662;48.814;9.318;2022-10-16T00:01:34;18.00;80.20
1337;DHT22;662;48.814;9.318;2022-10-16T00:04:01;18.00;80.20
1337;DHT22;662;48.814;9.318;2022-10-16T00:06:27;18.00;80.20
1337;DHT22;662;48.814;9.318;2022-10-16T00:08:53;18.00;80.10
1337;DHT22;662;48.814;9.318;2022-10-16T00:11:39;18.00;80.10
1337;DHT22;662;48.814;9.318;2022-10-16T00:14:09;18.00;80.10
1337;DHT22;662;48.814;9.318;2022-10-16T00:16:35;18.00;80.10
1337;DHT22;662;48.814;9.318;2022-10-16T00:19:01;18.00;80.20
1337;DHT22;662;48.814;9.318;2022-10-16T00:21:29;18.00;80.20
1337;DHT22;662;48.814;9.318;2022-10-16T00:23:58;18.00;80.30
1337;DHT22;662;48.814;9.318;2022-10-16T00:26:26;17.90;80.40
1337;DHT22;662;48.814;9.318;2022-10-16T00:28:52;17.90;80.40
1337;DHT22;662;48.814;9.318;2022-10-16T00:31:20;17.90;80.50
1337;DHT22;662;48.814;9.318;2022-10-16T00:33:46;17.90;80.50
1337;DHT22;662;48.814;9.318;2022-10-16T00:36:14;17.90;80.60
1337;DHT22;662;48.814;9.318;2022-10-16T00:38:40;17.90;80.60
1337;DHT22;662;48.814;9.318;2022-10-16T00:41:07;17.90;80.70
1337;DHT22;662;48.814;9.318;2022-10-16T00:43:41;17.90;80.70
1337;DHT22;662;48.814;9.318;2022-10-16T00:46:22;17.80;80.70
1337;DHT22;662;48.814;9.318;2022-10-16T00:49:02;17.80;80.90
1337;DHT22;662;48.814;9.318;2022-10-16T00:51:33;17.80;80.90
1337;DHT22;662;48.814;9.318;2022-10-16T00:54:01;17.80;81.00
1337;DHT22;662;48.814;9.318;2022-10-16T00:56:27;17.80;81.00
1337;DHT22;662;48.814;9.318;2022-10-16T00:58:53;17.80;81.00
1337;DHT22;662;48.814;9.318;2022-10-16T01:01:19;17.80;80.90
1337;DHT22;662;48.814;9.318;2022-10-16T01:03:44;17.80;80.90
1337;DHT22;662;48.814;9.318;2022-10-16T01:06:24;17.70;80.80
1337;DHT22;662;48.814;9.318;2022-10-16T01:09:11;17.70;80.90
1337;DHT22;662;48.814;9.318;2022-10-16T01:11:53;17.70;81.00
1337;DHT22;662;48.814;9.318;2022-10-16T01:14:26;17.70;81.00
1337;DHT22;662;48.814;9.318;2022-10-16T01:17:00;17.70;81.10
1337;DHT22;662;48.814;9.318;2022-10-16T01:20:08;17.70;81.30
1337;DHT22;662;48.814;9.318;2022-10-16T01:25:39;17.60;81.30
1337;DHT22;662;48.814;9.318;2022-10-16T01:28:13;17.70;81.70
1337;DHT22;662;48.814;9.318;2022-10-16T01:30:42;17.60;81.70
1337;DHT22;662;48.814;9.318;2022-10-16T01:33:21;17.60;81.80
1337;DHT22;662;48.814;9.318;2022-10-16T01:35:52;17.60;81.80
1337;DHT22;662;48.814;9.318;2022-10-16T01:38:29;17.60;81.90
1337;DHT22;662;48.814;9.318;2022-10-16T01:41:01;17.60;82.00
1337;DHT22;662;48.814;9.318;2022-10-16T01:43:33;17.60;82.00
1337;DHT22;662;48.814;9.318;2022-10-16T01:46:01;17.60;82.10
1337;DHT22;662;48.814;9.318;2022-10-16T01:48:29;17.60;82.20
1337;DHT22;662;48.814;9.318;2022-10-16T01:51:03;17.60;82.30
1337;DHT22;662;48.814;9.318;2022-10-16T01:53:31;17.60;82.30
1337;DHT22;662;48.814;9.318;2022-10-16T01:55:59;17.60;82.40
1337;DHT22;662;48.814;9.318;2022-10-16T01:58:25;17.60;82.40
1337;DHT22;662;48.814;9.318;2022-10-16T02:00:54;17.60;82.40
1337;DHT22;662;48.814;9.318;2022-10-16T02:03:20;17.60;82.50
1337;DHT22;662;48.814;9.318;2022-10-16T02:05:53;17.50;82.70
1337;DHT22;662;48.814;9.318;2022-10-16T02:08:21;17.50;82.80
1337;DHT22;662;48.814;9.318;2022-10-16T02:10:48;17.50;83.00
1337;DHT22;662;48.814;9.318;2022-10-16T02:13:46;17.50;83.10
1337;DHT22;662;48.814;9.318;2022-10-16T02:16:14;17.50;83.40
1337;DHT22;662;48.814;9.318;2022-10-16T02:18:40;17.50;83.40
1337;DHT22;662;48.814;9.318;2022-10-16T02:21:18;17.50;83.40
1337;DHT22;662;48.814;9.318;2022-10-16T02:26:30;17.50;83.50
1337;DHT22;662;48.814;9.318;2022-10-16T02:29:01;17.50;83.40
1337;DHT22;662;48.814;9.318;2022-10-16T02:31:32;17.50;83.40
1337;DHT22;662;48.814;9.318;2022-10-16T02:34:01;17.50;83.40
1337;DHT22;662;48.814;9.318;2022-10-16T02:36:28;17.50;83.40
1337;DHT22;662;48.814;9.318;2022-10-16T02:38:55;17.50;83.40
1337;DHT22;662;48.814;9.318;2022-10-16T02:41:22;17.50;83.30
1337;DHT22;662;48.814;9.318;2022-10-16T02:43:48;17.50;83.40
1337;DHT22;662;48.814;9.318;2022-10-16T02:46:15;17.50;83.30
1337;DHT22;662;48.814;9.318;2022-10-16T02:48:40;17.50;83.30
1337;DHT22;662;48.814;9.318;2022-10-16T02:51:06;17.50;83.20
1337;DHT22;662;48.814;9.318;2022-10-16T02:53:31;17.50;83.20
1337;DHT22;662;48.814;9.318;2022-10-16T02:55:57;17.50;83.20
1337;DHT22;662;48.814;9.318;2022-10-16T02:58:23;17.50;83.10
1337;DHT22;662;48.814;9.318;2022-10-16T03:00:48;17.50;83.10
1337;DHT22;662;48.814;9.318;2022-10-16T03:03:14;17.50;83.10
1337;DHT22;662;48.814;9.318;2022-10-16T03:05:39;17.50;83.10
1337;DHT22;662;48.814;9.318;2022-10-16T03:08:05;17.50;83.20
1337;DHT22;662;48.814;9.318;2022-10-16T03:10:30;17.50;83.20
1337;DHT22;662;48.814;9.318;2022-10-16T03:12:56;17.50;83.20
1337;DHT22;662;48.814;9.318;2022-10-16T03:15:21;17.50;83.30
1337;DHT22;662;48.814;9.318;2022-10-16T03:17:47;17.50;83.40
1337;DHT22;662;48.814;9.318;2022-10-16T03:20:13;17.50;83.40
1337;DHT22;662;48.814;9.318;2022-10-16T03:22:38;17.50;84.00
1337;DHT22;662;48.814;9.318;2022-10-16T03:25:04;17.50;83.40
1337;DHT22;662;48.814;9.318;2022-10-16T03:27:30;17.50;83.30
1337;DHT22;662;48.814;9.318;2022-10-16T03:29:55;17.50;83.40
1337;DHT22;662;48.814;9.318;2022-10-16T03:32:21;17.50;83.40
1337;DHT22;662;48.814;9.318;2022-10-16T03:34:47;17.50;83.40
1337;DHT22;662;48.814;9.318;2022-10-16T03:37:12;17.40;83.30
1337;DHT22;662;48.814;9.318;2022-10-16T03:39:38;17.40;83.30
1337;DHT22;662;48.814;9.318;2022-10-16T03:42:03;17.40;83.30
1337;DHT22;662;48.814;9.318;2022-10-16T03:44:29;17.40;83.40
1337;DHT22;662;48.814;9.318;2022-10-16T03:46:54;17.40;83.30
1337;DHT22;662;48.814;9.318;2022-10-16T03:49:20;17.40;83.40
1337;DHT22;662;48.814;9.318;2022-10-16T03:51:46;17.40;83.50
1337;DHT22;662;48.814;9.318;2022-10-16T03:54:11;17.40;83.40
1337;DHT22;662;48.814;9.318;2022-10-16T03:56:37;17.40;83.40
1337;DHT22;662;48.814;9.318;2022-10-16T03:59:03;17.40;83.40
1337;DHT22;662;48.814;9.318;2022-10-16T04:01:28;17.40;83.40
1337;DHT22;662;48.814;9.318;2022-10-16T04:03:54;17.40;83.40
1337;DHT22;662;48.814;9.318;2022-10-16T04:06:19;17.30;83.30
1337;DHT22;662;48.814;9.318;2022-10-16T04:08:45;17.30;83.30
1337;DHT22;662;48.814;9.318;2022-10-16T04:11:11;17.30;83.30
1337;DHT22;662;48.814;9.318;2022-10-16T04:13:37;17.30;83.30
1337;DHT22;662;48.814;9.318;2022-10-16T04:16:02;17.30;83.40
1337;DHT22;662;48.814;9.318;2022-10-16T04:18:28;17.30;83.50
1337;DHT22;662;48.814;9.318;2022-10-16T04:20:54;17.30;83.50
1337;DHT22;662;48.814;9.318;2022-10-16T04:23:20;17.30;83.60
1337;DHT22;662;48.814;9.318;2022-10-16T04:25:45;17.20;83.50
1337;DHT22;662;48.814;9.318;2022-10-16T04:28:11;17.20;83.50
1337;DHT22;662;48.814;9.318;2022-10-16T04:30:39;17.30;83.60
1337;DHT22;662;48.814;9.318;2022-10-16T04:33:05;17.30;83.50
1337;DHT22;662;48.814;9.318;2022-10-16T04:35:31;17.20;83.50
1337;DHT22;662;48.814;9.318;2022-10-16T04:37:59;17.30;83.50
1337;DHT22;662;48.814;9.318;2022-10-16T04:40:25;17.20;83.50
1337;DHT22;662;48.814;9.318;2022-10-16T04:42:51;17.20;83.50
1337;DHT22;662;48.814;9.318;2022-10-16T04:45:16;17.20;83.70
1337;DHT22;662;48.814;9.318;2022-10-16T04:47:42;17.20;83.80
1337;DHT22;662;48.814;9.318;2022-10-16T04:50:08;17.20;83.80
1337;DHT22;662;48.814;9.318;2022-10-16T04:52:33;17.10;83.70
1337;DHT22;662;48.814;9.318;2022-10-16T04:54:59;17.10;83.80
1337;DHT22;662;48.814;9.318;2022-10-16T04:57:28;17.20;83.90
1337;DHT22;662;48.814;9.318;2022-10-16T04:59:54;17.10;83.90
1337;DHT22;662;48.814;9.318;2022-10-16T05:02:20;17.10;84.00
1337;DHT22;662;48.814;9.318;2022-10-16T05:04:45;17.10;84.10
1337;DHT22;662;48.814;9.318;2022-10-16T05:07:11;17.10;84.10
1337;DHT22;662;48.814;9.318;2022-10-16T05:09:36;17.10;84.80
1337;DHT22;662;48.814;9.318;2022-10-16T05:12:02;17.10;84.20
1337;DHT22;662;48.814;9.318;2022-10-16T05:14:29;17.10;84.20
1337;DHT22;662;48.814;9.318;2022-10-16T05:16:54;17.10;84.20
1337;DHT22;662;48.814;9.318;2022-10-16T05:19:20;17.10;84.10
1337;DHT22;662;48.814;9.318;2022-10-16T05:21:46;17.10;84.00
1337;DHT22;662;48.814;9.318;2022-10-16T05:24:11;17.10;84.00
1337;DHT22;662;48.814;9.318;2022-10-16T05:26:37;17.10;84.00
1337;DHT22;662;48.814;9.318;2022-10-16T05:29:03;17.10;84.00
1337;DHT22;662;48.814;9.318;2022-10-16T05:31:29;17.10;83.90
1337;DHT22;662;48.814;9.318;2022-10-16T05:33:59;17.10;83.80
1337;DHT22;662;48.814;9.318;2022-10-16T05:36:25;17.10;83.70
1337;DHT22;662;48.814;9.318;2022-10-16T05:38:51;17.10;83.80
1337;DHT22;662;48.814;9.318;2022-10-16T05:41:17;17.10;83.80
1337;DHT22;662;48.814;9.318;2022-10-16T05:43:47;17.00;83.80
1337;DHT22;662;48.814;9.318;2022-10-16T05:46:13;17.00;83.80
1337;DHT22;662;48.814;9.318;2022-10-16T05:48:39;17.00;83.80
1337;DHT22;662;48.814;9.318;2022-10-16T05:51:07;17.00;83.80
1337;DHT22;662;48.814;9.318;2022-10-16T05:53:35;17.00;83.80
1337;DHT22;662;48.814;9.318;2022-10-16T05:56:02;17.00;83.90
1337;DHT22;662;48.814;9.318;2022-10-16T05:58:31;17.00;83.90
1337;DHT22;662;48.814;9.318;2022-10-16T06:01:03;17.00;83.80
1337;DHT22;662;48.814;9.318;2022-10-16T06:03:29;17.00;83.80
1337;DHT22;662;48.814;9.318;2022-10-16T06:05:54;17.00;83.80
1337;DHT22;662;48.814;9.318;2022-10-16T06:08:21;17.00;83.80
1337;DHT22;662;48.814;9.318;2022-10-16T06:10:48;17.00;83.80
1337;DHT22;662;48.814;9.318;2022-10-16T06:13:15;17.00;83.90
1337;DHT22;662;48.814;9.318;2022-10-16T06:15:42;17.00;84.60
1337;DHT22;662;48.814;9.318;2022-10-16T06:18:09;17.00;83.90
1337;DHT22;662;48.814;9.318;2022-10-16T06:20:35;17.00;83.80
1337;DHT22;662;48.814;9.318;2022-10-16T06:23:01;17.00;83.80
1337;DHT22;662;48.814;9.318;2022-10-16T06:25:26;17.00;83.90
1337;DHT22;662;48.814;9.318;2022-10-16T06:27:52;17.00;83.80
1337;DHT22;662;48.814;9.318;2022-10-16T06:30:18;17.10;83.80
1337;DHT22;662;48.814;9.318;2022-10-16T06:32:43;17.10;83.80
1337;DHT22;662;48.814;9.318;2022-10-16T06:35:09;17.10;83.80
1337;DHT22;662;48.814;9.318;2022-10-16T06:37:34;17.10;83.80
1337;DHT22;662;48.814;9.318;2022-10-16T06:40:00;17.10;83.80
1337;DHT22;662;48.814;9.318;2022-10-16T06:42:25;17.10;83.80
1337;DHT22;662;48.814;9.318;2022-10-16T06:44:51;17.20;83.80
1337;DHT22;662;48.814;9.318;2022-10-16T06:47:17;17.20;83.70
1337;DHT22;662;48.814;9.318;2022-10-16T06:49:42;17.30;83.70
1337;DHT22;662;48.814;9.318;2022-10-16T06:52:08;17.30;83.50
1337;DHT22;662;48.814;9.318;2022-10-16T06:54:33;17.30;83.40
1337;DHT22;662;48.814;9.318;2022-10-16T06:56:59;17.30;83.30
1337;DHT22;662;48.814;9.318;2022-10-16T06:59:25;17.40;83.30
1337;DHT22;662;48.814;9.318;2022-10-16T07:01:50;17.40;83.30
1337;DHT22;662;48.814;9.318;2022-10-16T07:04:16;17.40;83.20
1337;DHT22;662;48.814;9.318;2022-10-16T07:06:41;17.50;83.10
1337;DHT22;662;48.814;9.318;2022-10-16T07:09:09;17.50;83.00
1337;DHT22;662;48.814;9.318;2022-10-16T07:11:36;17.50;83.10
1337;DHT22;662;48.814;9.318;2022-10-16T07:14:02;17.50;83.00
1337;DHT22;662;48.814;9.318;2022-10-16T07:16:30;17.50;82.90
1337;DHT22;662;48.814;9.318;2022-10-16T07:18:57;17.50;82.80
1337;DHT22;662;48.814;9.318;2022-10-16T07:21:25;17.60;82.80
1337;DHT22;662;48.814;9.318;2022-10-16T07:23:52;17.60;82.70
1337;DHT22;662;48.814;9.318;2022-10-16T07:26:18;17.70;82.80
1337;DHT22;662;48.814;9.318;2022-10-16T07:28:44;17.70;82.60
1337;DHT22;662;48.814;9.318;2022-10-16T07:31:12;17.70;82.70
1337;DHT22;662;48.814;9.318;2022-10-16T07:33:43;17.70;82.70
1337;DHT22;662;48.814;9.318;2022-10-16T07:36:10;17.70;82.80
1337;DHT22;662;48.814;9.318;2022-10-16T07:38:35;17.70;82.90
1337;DHT22;662;48.814;9.318;2022-10-16T07:41:03;17.70;82.90
1337;DHT22;662;48.814;9.318;2022-10-16T07:43:29;17.70;83.10
1337;DHT22;662;48.814;9.318;2022-10-16T07:45:55;17.70;83.20
1337;DHT22;662;48.814;9.318;2022-10-16T07:48:22;17.70;83.20
1337;DHT22;662;48.814;9.318;2022-10-16T07:50:48;17.70;83.20
1337;DHT22;662;48.814;9.318;2022-10-16T07:53:14;17.70;83.10
1337;DHT22;662;48.814;9.318;2022-10-16T07:55:40;17.70;83.20
1337;DHT22;662;48.814;9.318;2022-10-16T07:58:06;17.70;83.30
1337;DHT22;662;48.814;9.318;2022-10-16T08:00:32;17.80;83.50
1337;DHT22;662;48.814;9.318;2022-10-16T08:02:58;17.80;83.50
1337;DHT22;662;48.814;9.318;2022-10-16T08:05:28;17.90;83.60
1337;DHT22;662;48.814;9.318;2022-10-16T08:07:54;17.90;83.60
1337;DHT22;662;48.814;9.318;2022-10-16T08:10:21;17.90;83.50
1337;DHT22;662;48.814;9.318;2022-10-16T08:12:47;17.90;83.50
1337;DHT22;662;48.814;9.318;2022-10-16T08:15:12;18.00;83.60
1337;DHT22;662;48.814;9.318;2022-10-16T08:17:38;18.00;84.10
1337;DHT22;662;48.814;9.318;2022-10-16T08:20:04;18.10;83.50
1337;DHT22;662;48.814;9.318;2022-10-16T08:22:30;18.20;83.50
1337;DHT22;662;48.814;9.318;2022-10-16T08:24:55;18.30;83.60
1337;DHT22;662;48.814;9.318;2022-10-16T08:27:21;18.30;83.30
1337;DHT22;662;48.814;9.318;2022-10-16T08:29:48;18.40;83.20
1337;DHT22;662;48.814;9.318;2022-10-16T08:32:14;18.50;83.10
1337;DHT22;662;48.814;9.318;2022-10-16T08:34:39;18.60;83.00
1337;DHT22;662;48.814;9.318;2022-10-16T08:37:05;18.80;82.70
1337;DHT22;662;48.814;9.318;2022-10-16T08:39:32;19.00;82.40
1337;DHT22;662;48.814;9.318;2022-10-16T08:42:20;19.30;82.00
1337;DHT22;662;48.814;9.318;2022-10-16T08:44:59;19.50;81.40
1337;DHT22;662;48.814;9.318;2022-10-16T08:50:29;19.80;80.40
1337;DHT22;662;48.814;9.318;2022-10-16T08:52:56;19.90;79.80
1337;DHT22;662;48.814;9.318;2022-10-16T08:55:42;20.00;79.00
1337;DHT22;662;48.814;9.318;2022-10-16T08:58:20;20.10;78.50
1337;DHT22;662;48.814;9.318;2022-10-16T09:00:49;20.10;78.20
1337;DHT22;662;48.814;9.318;2022-10-16T09:08:55;20.20;77.70
1337;DHT22;662;48.814;9.318;2022-10-16T09:14:26;20.20;77.10
1337;DHT22;662;48.814;9.318;2022-10-16T09:17:53;20.30;76.70
1337;DHT22;662;48.814;9.318;2022-10-16T09:22:43;20.40;75.80
1337;DHT22;662;48.814;9.318;2022-10-16T09:25:27;20.50;74.80
1337;DHT22;662;48.814;9.318;2022-10-16T09:27:53;20.70;74.30
1337;DHT22;662;48.814;9.318;2022-10-16T09:30:20;20.90;73.70
1337;DHT22;662;48.814;9.318;2022-10-16T09:32:49;21.10;72.60
1337;DHT22;662;48.814;9.318;2022-10-16T09:35:22;21.50;71.60
1337;DHT22;662;48.814;9.318;2022-10-16T09:37:51;21.80;70.40
1337;DHT22;662;48.814;9.318;2022-10-16T09:45:29;22.00;69.00
1337;DHT22;662;48.814;9.318;2022-10-16T09:47:54;22.10;69.20
1337;DHT22;662;48.814;9.318;2022-10-16T09:50:28;22.20;68.40
1337;DHT22;662;48.814;9.318;2022-10-16T09:53:23;22.20;68.00
1337;DHT22;662;48.814;9.318;2022-10-16T09:55:53;22.20;67.30
1337;DHT22;662;48.814;9.318;2022-10-16T09:58:22;22.10;67.20
1337;DHT22;662;48.814;9.318;2022-10-16T10:00:50;22.20;67.20
1337;DHT22;662;48.814;9.318;2022-10-16T10:03:40;22.20;66.90
1337;DHT22;662;48.814;9.318;2022-10-16T10:06:17;22.30;65.90
1337;DHT22;662;48.814;9.318;2022-10-16T10:08:59;22.30;64.20
1337;DHT22;662;48.814;9.318;2022-10-16T10:14:18;22.30;63.50
1337;DHT22;662;48.814;9.318;2022-10-16T10:16:46;22.30;63.20
1337;DHT22;662;48.814;9.318;2022-10-16T10:19:20;22.40;63.20
1337;DHT22;662;48.814;9.318;2022-10-16T10:21:46;22.50;63.30
1337;DHT22;662;48.814;9.318;2022-10-16T10:24:16;22.60;63.00
1337;DHT22;662;48.814;9.318;2022-10-16T10:26:54;22.70;61.40
1337;DHT22;662;48.814;9.318;2022-10-16T10:32:21;22.80;60.00
1337;DHT22;662;48.814;9.318;2022-10-16T10:40:16;22.80;59.30
1337;DHT22;662;48.814;9.318;2022-10-16T10:45:28;23.00;59.90
1337;DHT22;662;48.814;9.318;2022-10-16T10:50:59;23.30;59.40
1337;DHT22;662;48.814;9.318;2022-10-16T10:53:55;23.40;58.50
1337;DHT22;662;48.814;9.318;2022-10-16T11:00:16;23.60;58.00
1337;DHT22;662;48.814;9.318;2022-10-16T11:02:48;23.70;58.50
1337;DHT22;662;48.814;9.318;2022-10-16T11:05:35;23.90;58.90
1337;DHT22;662;48.814;9.318;2022-10-16T11:08:14;24.30;58.80
1337;DHT22;662;48.814;9.318;2022-10-16T11:16:32;26.60;52.60
1337;DHT22;662;48.814;9.318;2022-10-16T11:19:05;27.30;51.40
1337;DHT22;662;48.814;9.318;2022-10-16T11:21:51;28.00;50.30
1337;DHT22;662;48.814;9.318;2022-10-16T11:24:24;28.80;49.50
1337;DHT22;662;48.814;9.318;2022-10-16T11:26:56;29.40;48.00
1337;DHT22;662;48.814;9.318;2022-10-16T11:29:27;29.90;46.90
1337;DHT22;662;48.814;9.318;2022-10-16T11:31:58;30.10;45.30
1337;DHT22;662;48.814;9.318;2022-10-16T11:34:32;30.20;44.60
1337;DHT22;662;48.814;9.318;2022-10-16T11:37:11;30.10;44.70
1337;DHT22;662;48.814;9.318;2022-10-16T11:39:38;29.80;45.30
1337;DHT22;662;48.814;9.318;2022-10-16T11:42:21;29.60;45.70
1337;DHT22;662;48.814;9.318;2022-10-16T11:47:43;29.80;44.90
1337;DHT22;662;48.814;9.318;2022-10-16T11:50:34;30.20;43.80
1337;DHT22;662;48.814;9.318;2022-10-16T11:55:37;30.90;41.60
1337;DHT22;662;48.814;9.318;2022-10-16T11:58:07;31.20;41.90
1337;DHT22;662;48.814;9.318;2022-10-16T12:00:59;31.50;41.70
1337;DHT22;662;48.814;9.318;2022-10-16T12:03:48;31.80;39.00
1337;DHT22;662;48.814;9.318;2022-10-16T12:06:23;32.20;38.90
1337;DHT22;662;48.814;9.318;2022-10-16T12:08:52;32.40;38.00
1337;DHT22;662;48.814;9.318;2022-10-16T12:16:33;32.80;38.50
1337;DHT22;662;48.814;9.318;2022-10-16T12:19:14;33.10;38.60
1337;DHT22;662;48.814;9.318;2022-10-16T12:21:41;33.20;38.30
1337;DHT22;662;48.814;9.318;2022-10-16T12:27:01;33.50;37.30
1337;DHT22;662;48.814;9.318;2022-10-16T12:29:34;33.50;37.20
1337;DHT22;662;48.814;9.318;2022-10-16T12:32:00;33.30;37.10
1337;DHT22;662;48.814;9.318;2022-10-16T12:34:42;33.10;37.20
1337;DHT22;662;48.814;9.318;2022-10-16T12:37:22;32.70;37.40
1337;DHT22;662;48.814;9.318;2022-10-16T12:39:49;32.50;38.20
1337;DHT22;662;48.814;9.318;2022-10-16T12:44:52;32.30;38.80
1337;DHT22;662;48.814;9.318;2022-10-16T12:49:59;32.20;38.40
1337;DHT22;662;48.814;9.318;2022-10-16T12:54:59;32.10;39.30
1337;DHT22;662;48.814;9.318;2022-10-16T13:14:06;30.70;40.80
1337;DHT22;662;48.814;9.318;2022-10-16T13:17:08;30.30;41.80
1337;DHT22;662;48.814;9.318;2022-10-16T13:19:44;29.80;42.40
1337;DHT22;662;48.814;9.318;2022-10-16T13:22:22;29.40;43.20
1337;DHT22;662;48.814;9.318;2022-10-16T13:30:11;29.50;44.60
1337;DHT22;662;48.814;9.318;2022-10-16T13:32:37;29.80;44.00
1337;DHT22;662;48.814;9.318;2022-10-16T13:35:19;29.80;43.80
1337;DHT22;662;48.814;9.318;2022-10-16T13:37:45;29.50;44.10
1337;DHT22;662;48.814;9.318;2022-10-16T13:40:24;29.20;45.00
1337;DHT22;662;48.814;9.318;2022-10-16T13:42:51;29.00;44.80
1337;DHT22;662;48.814;9.318;2022-10-16T13:45:23;28.80;45.20
1337;DHT22;662;48.814;9.318;2022-10-16T13:48:00;28.60;45.80
1337;DHT22;662;48.814;9.318;2022-10-16T13:50:26;28.40;46.20
1337;DHT22;662;48.814;9.318;2022-10-16T13:52:51;28.20;46.90
1337;DHT22;662;48.814;9.318;2022-10-16T13:55:18;28.00;47.50
1337;DHT22;662;48.814;9.318;2022-10-16T13:57:44;28.00;47.90
1337;DHT22;662;48.814;9.318;2022-10-16T14:00:25;28.00;48.10
1337;DHT22;662;48.814;9.318;2022-10-16T14:03:07;28.10;48.10
1337;DHT22;662;48.814;9.318;2022-10-16T14:05:45;28.50;47.90
1337;DHT22;662;48.814;9.318;2022-10-16T14:08:12;28.90;47.30
1337;DHT22;662;48.814;9.318;2022-10-16T14:10:38;29.10;46.70
1337;DHT22;662;48.814;9.318;2022-10-16T14:13:06;29.10;45.90
1337;DHT22;662;48.814;9.318;2022-10-16T14:15:34;28.80;45.90
1337;DHT22;662;48.814;9.318;2022-10-16T14:18:00;28.60;46.40
1337;DHT22;662;48.814;9.318;2022-10-16T14:20:29;28.20;46.90
1337;DHT22;662;48.814;9.318;2022-10-16T14:23:00;27.90;47.50
1337;DHT22;662;48.814;9.318;2022-10-16T14:25:29;27.50;48.20
1337;DHT22;662;48.814;9.318;2022-10-16T14:28:21;27.30;49.10
1337;DHT22;662;48.814;9.318;2022-10-16T14:30:52;27.10;50.60
1337;DHT22;662;48.814;9.318;2022-10-16T14:33:33;26.80;50.30
1337;DHT22;662;48.814;9.318;2022-10-16T14:38:29;26.50;51.00
1337;DHT22;662;48.814;9.318;2022-10-16T14:40:57;26.40;51.60
1337;DHT22;662;48.814;9.318;2022-10-16T14:43:38;26.30;52.00
1337;DHT22;662;48.814;9.318;2022-10-16T14:46:13;26.20;52.50
1337;DHT22;662;48.814;9.318;2022-10-16T14:48:43;26.10;52.60
1337;DHT22;662;48.814;9.318;2022-10-16T14:51:20;26.00;52.80
1337;DHT22;662;48.814;9.318;2022-10-16T14:53:46;25.90;52.90
1337;DHT22;662;48.814;9.318;2022-10-16T14:56:23;25.80;53.30
1337;DHT22;662;48.814;9.318;2022-10-16T14:58:51;25.70;53.70
1337;DHT22;662;48.814;9.318;2022-10-16T15:01:17;25.60;53.70
1337;DHT22;662;48.814;9.318;2022-10-16T15:03:43;25.60;53.90
1337;DHT22;662;48.814;9.318;2022-10-16T15:06:15;25.50;53.80
1337;DHT22;662;48.814;9.318;2022-10-16T15:08:42;25.40;53.80
1337;DHT22;662;48.814;9.318;2022-10-16T15:11:12;25.40;53.70
1337;DHT22;662;48.814;9.318;2022-10-16T15:13:39;25.30;53.80
1337;DHT22;662;48.814;9.318;2022-10-16T15:16:04;25.20;54.00
1337;DHT22;662;48.814;9.318;2022-10-16T15:18:30;25.20;54.20
1337;DHT22;662;48.814;9.318;2022-10-16T15:20:55;25.10;54.50
1337;DHT22;662;48.814;9.318;2022-10-16T15:23:22;25.00;54.60
1337;DHT22;662;48.814;9.318;2022-10-16T15:25:53;24.90;54.90
1337;DHT22;662;48.814;9.318;2022-10-16T15:28:20;24.90;55.60
1337;DHT22;662;48.814;9.318;2022-10-16T15:30:46;24.80;55.80
1337;DHT22;662;48.814;9.318;2022-10-16T15:33:21;24.70;55.80
1337;DHT22;662;48.814;9.318;2022-10-16T15:35:49;24.70;56.10
1337;DHT22;662;48.814;9.318;2022-10-16T15:38:16;24.60;56.50
1337;DHT22;662;48.814;9.318;2022-10-16T15:40:43;24.50;56.90
1337;DHT22;662;48.814;9.318;2022-10-16T15:43:09;24.40;57.20
1337;DHT22;662;48.814;9.318;2022-10-16T15:45:35;24.30;57.50
1337;DHT22;662;48.814;9.318;2022-10-16T15:48:00;24.20;57.60
1337;DHT22;662;48.814;9.318;2022-10-16T15:50:26;24.20;58.30
1337;DHT22;662;48.814;9.318;2022-10-16T15:52:52;24.00;57.90
1337;DHT22;662;48.814;9.318;2022-10-16T15:55:17;23.90;58.00
1337;DHT22;662;48.814;9.318;2022-10-16T15:57:45;23.90;58.40
1337;DHT22;662;48.814;9.318;2022-10-16T16:00:19;23.80;58.70
1337;DHT22;662;48.814;9.318;2022-10-16T16:02:52;23.70;59.10
1337;DHT22;662;48.814;9.318;2022-10-16T16:05:19;23.70;59.40
1337;DHT22;662;48.814;9.318;2022-10-16T16:07:45;23.60;59.70
1337;DHT22;662;48.814;9.318;2022-10-16T16:10:11;23.60;60.00
1337;DHT22;662;48.814;9.318;2022-10-16T16:12:37;23.50;60.00
1337;DHT22;662;48.814;9.318;2022-10-16T16:15:05;23.50;60.60
1337;DHT22;662;48.814;9.318;2022-10-16T16:17:32;23.40;60.80
1337;DHT22;662;48.814;9.318;2022-10-16T16:19:58;23.30;60.90
1337;DHT22;662;48.814;9.318;2022-10-16T16:22:24;23.30;61.30
1337;DHT22;662;48.814;9.318;2022-10-16T16:24:49;23.20;61.50
1337;DHT22;662;48.814;9.318;2022-10-16T16:27:15;23.10;61.80
1337;DHT22;662;48.814;9.318;2022-10-16T16:29:40;23.10;62.00
1337;DHT22;662;48.814;9.318;2022-10-16T16:32:06;23.00;62.20
1337;DHT22;662;48.814;9.318;2022-10-16T16:34:32;22.90;62.30
1337;DHT22;662;48.814;9.318;2022-10-16T16:36:57;22.80;62.30
1337;DHT22;662;48.814;9.318;2022-10-16T16:39:23;22.70;62.70
1337;DHT22;662;48.814;9.318;2022-10-16T16:41:49;22.70;62.90
1337;DHT22;662;48.814;9.318;2022-10-16T16:44:16;22.60;63.20
1337;DHT22;662;48.814;9.318;2022-10-16T16:46:43;22.50;63.40
1337;DHT22;662;48.814;9.318;2022-10-16T16:49:10;22.50;63.50
1337;DHT22;662;48.814;9.318;2022-10-16T16:51:37;22.40;63.50
1337;DHT22;662;48.814;9.318;2022-10-16T16:54:03;22.30;63.60
1337;DHT22;662;48.814;9.318;2022-10-16T16:56:29;22.30;63.90
1337;DHT22;662;48.814;9.318;2022-10-16T16:58:56;22.20;64.00
1337;DHT22;662;48.814;9.318;2022-10-16T17:01:24;22.20;64.30
1337;DHT22;662;48.814;9.318;2022-10-16T17:03:52;22.10;64.40
1337;DHT22;662;48.814;9.318;2022-10-16T17:06:19;22.00;64.60
1337;DHT22;662;48.814;9.318;2022-10-16T17:08:45;22.00;64.90
1337;DHT22;662;48.814;9.318;2022-10-16T17:11:14;21.90;64.90
1337;DHT22;662;48.814;9.318;2022-10-16T17:13:40;21.90;65.00
1337;DHT22;662;48.814;9.318;2022-10-16T17:16:07;21.80;64.90
1337;DHT22;662;48.814;9.318;2022-10-16T17:18:33;21.80;65.10
1337;DHT22;662;48.814;9.318;2022-10-16T17:21:01;21.80;65.20
1337;DHT22;662;48.814;9.318;2022-10-16T17:23:27;21.80;65.30
1337;DHT22;662;48.814;9.318;2022-10-16T17:25:53;21.70;65.20
1337;DHT22;662;48.814;9.318;2022-10-16T17:28:19;21.60;65.00
1337;DHT22;662;48.814;9.318;2022-10-16T17:30:44;21.60;65.10
1337;DHT22;662;48.814;9.318;2022-10-16T17:33:11;21.60;65.10
1337;DHT22;662;48.814;9.318;2022-10-16T17:35:39;21.50;65.20
1337;DHT22;662;48.814;9.318;2022-10-16T17:38:05;21.50;65.30
1337;DHT22;662;48.814;9.318;2022-10-16T17:40:31;21.40;65.90
1337;DHT22;662;48.814;9.318;2022-10-16T17:42:56;21.40;66.00
1337;DHT22;662;48.814;9.318;2022-10-16T17:45:22;21.40;65.50
1337;DHT22;662;48.814;9.318;2022-10-16T17:47:47;21.30;65.60
1337;DHT22;662;48.814;9.318;2022-10-16T17:50:13;21.30;65.80
1337;DHT22;662;48.814;9.318;2022-10-16T17:52:39;21.20;66.00
1337;DHT22;662;48.814;9.318;2022-10-16T17:55:05;21.20;66.10
1337;DHT22;662;48.814;9.318;2022-10-16T17:57:31;21.10;66.10
1337;DHT22;662;48.814;9.318;2022-10-16T17:59:56;21.10;66.30
1337;DHT22;662;48.814;9.318;2022-10-16T18:02:22;21.00;66.30
1337;DHT22;662;48.814;9.318;2022-10-16T18:04:49;21.00;66.40
1337;DHT22;662;48.814;9.318;2022-10-16T18:07:15;21.00;66.70